Archival Weather

Chicago Midway Intl

Chicago, Illinois (KMDW)

Report from: Tuesday, June 14, 2022 3:53 PM CDT
Current time: Monday, August 15, 2022 7:34 PM CDT

Current weather
Weather history
Weather forecast

Temperature37.8°C (100.0°F)
Heat index41.7°C (107.1°F)
Dew point20.6°C (69.1°F)
Winds 11 kts (5.7 m/s, 12.7 mph) Southwest (230°)
Visibility10 mi. (16.1 km)
Clouds Sky clear
Altimeter29.81 in.Hg (1009 mB)
Relative humidity37 %
Density altitude3,026 ft. (922 m)
Sea-level pressure100.8 kPa (1008 mB, 29.77 in.Hg)
Remarks Automated weather observing station with precipitation discriminator
Pressure falling more slowly
Flight conditions Visual Meteorological Conditions
Raw dataKMDW 142053Z 23011KT 10SM CLR 38/21 A2981 RMK AO2 SLP080 T03780206 56011
An error has occurred. This application may no longer respond until reloaded. Reload 🗙